sensor_id;sensor_type;location;lat;lon;timestamp;temperature;humidity
47861;HTU21D;33620;52.340;5.984;2023-08-20T00:01:45;19.84;79.71
47861;HTU21D;33620;52.340;5.984;2023-08-20T00:04:11;19.79;79.69
47861;HTU21D;33620;52.340;5.984;2023-08-20T00:06:38;19.73;79.59
47861;HTU21D;33620;52.340;5.984;2023-08-20T00:09:03;19.70;79.82
47861;HTU21D;33620;52.340;5.984;2023-08-20T00:11:29;19.66;79.63
47861;HTU21D;33620;52.340;5.984;2023-08-20T00:13:54;19.61;79.93
47861;HTU21D;33620;52.340;5.984;2023-08-20T00:16:20;19.66;79.91
47861;HTU21D;33620;52.340;5.984;2023-08-20T00:18:46;19.62;79.86
47861;HTU21D;33620;52.340;5.984;2023-08-20T00:21:13;19.58;79.76
47861;HTU21D;33620;52.340;5.984;2023-08-20T00:23:39;19.54;79.78
47861;HTU21D;33620;52.340;5.984;2023-08-20T00:26:05;19.46;79.75
47861;HTU21D;33620;52.340;5.984;2023-08-20T00:28:30;19.42;79.81
47861;HTU21D;33620;52.340;5.984;2023-08-20T00:30:58;19.38;79.89
47861;HTU21D;33620;52.340;5.984;2023-08-20T00:33:23;19.36;79.81
47861;HTU21D;33620;52.340;5.984;2023-08-20T00:35:49;19.29;80.00
47861;HTU21D;33620;52.340;5.984;2023-08-20T00:38:14;19.23;80.46
47861;HTU21D;33620;52.340;5.984;2023-08-20T00:40:40;19.24;80.66
47861;HTU21D;33620;52.340;5.984;2023-08-20T00:43:05;19.29;80.66
47861;HTU21D;33620;52.340;5.984;2023-08-20T00:45:31;19.36;80.76
47861;HTU21D;33620;52.340;5.984;2023-08-20T00:47:57;19.39;80.52
47861;HTU21D;33620;52.340;5.984;2023-08-20T00:50:22;19.41;80.66
47861;HTU21D;33620;52.340;5.984;2023-08-20T00:52:48;19.45;80.59
47861;HTU21D;33620;52.340;5.984;2023-08-20T00:55:13;19.44;80.46
47861;HTU21D;33620;52.340;5.984;2023-08-20T00:57:40;19.41;80.54
47861;HTU21D;33620;52.340;5.984;2023-08-20T01:00:07;19.35;80.56
47861;HTU21D;33620;52.340;5.984;2023-08-20T01:02:35;19.36;80.95
47861;HTU21D;33620;52.340;5.984;2023-08-20T01:05:03;19.37;80.95
47861;HTU21D;33620;52.340;5.984;2023-08-20T01:07:43;19.38;80.94
47861;HTU21D;33620;52.340;5.984;2023-08-20T01:10:33;19.37;80.95
47861;HTU21D;33620;52.340;5.984;2023-08-20T01:13:00;19.35;81.29
47861;HTU21D;33620;52.340;5.984;2023-08-20T01:15:25;19.35;81.20
47861;HTU21D;33620;52.340;5.984;2023-08-20T01:17:51;19.31;80.81
47861;HTU21D;33620;52.340;5.984;2023-08-20T01:20:16;19.21;81.18
47861;HTU21D;33620;52.340;5.984;2023-08-20T01:28:37;19.12;81.56
47861;HTU21D;33620;52.340;5.984;2023-08-20T01:31:04;19.11;81.91
47861;HTU21D;33620;52.340;5.984;2023-08-20T01:33:31;19.17;81.98
47861;HTU21D;33620;52.340;5.984;2023-08-20T01:35:56;19.15;81.96
47861;HTU21D;33620;52.340;5.984;2023-08-20T01:38:22;19.18;81.83
47861;HTU21D;33620;52.340;5.984;2023-08-20T01:40:48;19.23;81.49
47861;HTU21D;33620;52.340;5.984;2023-08-20T01:43:13;19.17;81.37
47861;HTU21D;33620;52.340;5.984;2023-08-20T01:45:39;19.10;81.62
47861;HTU21D;33620;52.340;5.984;2023-08-20T01:48:05;19.06;81.63
47861;HTU21D;33620;52.340;5.984;2023-08-20T01:50:30;19.05;81.69
47861;HTU21D;33620;52.340;5.984;2023-08-20T01:52:56;19.01;81.62
47861;HTU21D;33620;52.340;5.984;2023-08-20T01:55:21;19.03;81.52
47861;HTU21D;33620;52.340;5.984;2023-08-20T01:57:46;19.06;81.45
47861;HTU21D;33620;52.340;5.984;2023-08-20T02:00:12;19.06;81.31
47861;HTU21D;33620;52.340;5.984;2023-08-20T02:02:38;19.05;81.23
47861;HTU21D;33620;52.340;5.984;2023-08-20T02:05:03;19.03;81.35
47861;HTU21D;33620;52.340;5.984;2023-08-20T02:07:29;19.05;81.56
47861;HTU21D;33620;52.340;5.984;2023-08-20T02:09:54;19.03;81.77
47861;HTU21D;33620;52.340;5.984;2023-08-20T02:12:20;19.03;81.68
47861;HTU21D;33620;52.340;5.984;2023-08-20T02:14:45;19.02;81.70
47861;HTU21D;33620;52.340;5.984;2023-08-20T02:17:11;19.01;81.59
47861;HTU21D;33620;52.340;5.984;2023-08-20T02:19:38;19.02;81.49
47861;HTU21D;33620;52.340;5.984;2023-08-20T02:22:03;19.00;81.27
47861;HTU21D;33620;52.340;5.984;2023-08-20T02:24:28;18.99;81.07
47861;HTU21D;33620;52.340;5.984;2023-08-20T02:26:54;18.97;81.16
47861;HTU21D;33620;52.340;5.984;2023-08-20T02:29:19;18.94;81.33
47861;HTU21D;33620;52.340;5.984;2023-08-20T02:31:45;18.92;81.46
47861;HTU21D;33620;52.340;5.984;2023-08-20T02:34:10;18.96;81.15
47861;HTU21D;33620;52.340;5.984;2023-08-20T02:36:35;18.91;81.00
47861;HTU21D;33620;52.340;5.984;2023-08-20T02:39:01;18.85;81.10
47861;HTU21D;33620;52.340;5.984;2023-08-20T02:41:28;18.83;81.04
47861;HTU21D;33620;52.340;5.984;2023-08-20T02:43:54;18.79;81.26
47861;HTU21D;33620;52.340;5.984;2023-08-20T02:46:19;18.77;81.00
47861;HTU21D;33620;52.340;5.984;2023-08-20T02:48:44;18.74;81.27
47861;HTU21D;33620;52.340;5.984;2023-08-20T02:51:10;18.72;81.59
47861;HTU21D;33620;52.340;5.984;2023-08-20T02:53:35;18.70;81.68
47861;HTU21D;33620;52.340;5.984;2023-08-20T02:56:01;18.67;81.84
47861;HTU21D;33620;52.340;5.984;2023-08-20T02:58:26;18.64;81.50
47861;HTU21D;33620;52.340;5.984;2023-08-20T03:00:51;18.63;81.64
47861;HTU21D;33620;52.340;5.984;2023-08-20T03:03:18;18.61;81.67
47861;HTU21D;33620;52.340;5.984;2023-08-20T03:05:43;18.57;81.55
47861;HTU21D;33620;52.340;5.984;2023-08-20T03:08:09;18.53;81.36
47861;HTU21D;33620;52.340;5.984;2023-08-20T03:10:35;18.49;81.40
47861;HTU21D;33620;52.340;5.984;2023-08-20T03:13:01;18.46;81.33
47861;HTU21D;33620;52.340;5.984;2023-08-20T03:15:28;18.42;81.65
47861;HTU21D;33620;52.340;5.984;2023-08-20T03:17:53;18.40;81.60
47861;HTU21D;33620;52.340;5.984;2023-08-20T03:20:19;18.37;81.76
47861;HTU21D;33620;52.340;5.984;2023-08-20T03:22:44;18.36;81.94
47861;HTU21D;33620;52.340;5.984;2023-08-20T03:25:09;18.38;81.85
47861;HTU21D;33620;52.340;5.984;2023-08-20T03:27:35;18.35;81.49
47861;HTU21D;33620;52.340;5.984;2023-08-20T03:30:01;18.27;81.43
47861;HTU21D;33620;52.340;5.984;2023-08-20T03:32:26;18.26;81.24
47861;HTU21D;33620;52.340;5.984;2023-08-20T03:34:52;18.11;81.37
47861;HTU21D;33620;52.340;5.984;2023-08-20T03:37:19;18.02;81.85
47861;HTU21D;33620;52.340;5.984;2023-08-20T03:39:44;17.97;82.07
47861;HTU21D;33620;52.340;5.984;2023-08-20T03:42:10;17.94;82.21
47861;HTU21D;33620;52.340;5.984;2023-08-20T03:44:35;17.88;82.30
47861;HTU21D;33620;52.340;5.984;2023-08-20T03:47:00;17.84;82.46
47861;HTU21D;33620;52.340;5.984;2023-08-20T03:49:26;17.83;82.43
47861;HTU21D;33620;52.340;5.984;2023-08-20T03:51:51;17.80;82.46
47861;HTU21D;33620;52.340;5.984;2023-08-20T03:54:17;17.81;82.42
47861;HTU21D;33620;52.340;5.984;2023-08-20T03:56:42;17.80;82.47
47861;HTU21D;33620;52.340;5.984;2023-08-20T03:59:07;17.80;82.28
47861;HTU21D;33620;52.340;5.984;2023-08-20T04:01:33;17.76;82.17
47861;HTU21D;33620;52.340;5.984;2023-08-20T04:04:01;17.73;82.33
47861;HTU21D;33620;52.340;5.984;2023-08-20T04:06:26;17.69;82.46
47861;HTU21D;33620;52.340;5.984;2023-08-20T04:08:51;17.67;82.43
47861;HTU21D;33620;52.340;5.984;2023-08-20T04:11:17;17.63;82.50
47861;HTU21D;33620;52.340;5.984;2023-08-20T04:13:42;17.60;82.52
47861;HTU21D;33620;52.340;5.984;2023-08-20T04:16:09;17.56;82.60
47861;HTU21D;33620;52.340;5.984;2023-08-20T04:18:34;17.52;82.58
47861;HTU21D;33620;52.340;5.984;2023-08-20T04:21:00;17.47;82.94
47861;HTU21D;33620;52.340;5.984;2023-08-20T04:23:25;17.48;82.80
47861;HTU21D;33620;52.340;5.984;2023-08-20T04:25:50;17.48;82.58
47861;HTU21D;33620;52.340;5.984;2023-08-20T04:28:16;17.45;82.64
47861;HTU21D;33620;52.340;5.984;2023-08-20T04:30:41;17.45;82.70
47861;HTU21D;33620;52.340;5.984;2023-08-20T04:33:07;17.47;82.55
47861;HTU21D;33620;52.340;5.984;2023-08-20T04:35:33;17.48;82.75
47861;HTU21D;33620;52.340;5.984;2023-08-20T04:37:58;17.46;82.58
47861;HTU21D;33620;52.340;5.984;2023-08-20T04:40:24;17.46;82.75
47861;HTU21D;33620;52.340;5.984;2023-08-20T04:42:51;17.46;82.65
47861;HTU21D;33620;52.340;5.984;2023-08-20T04:45:16;17.43;82.68
47861;HTU21D;33620;52.340;5.984;2023-08-20T04:47:44;17.44;82.81
47861;HTU21D;33620;52.340;5.984;2023-08-20T04:50:10;17.43;82.75
47861;HTU21D;33620;52.340;5.984;2023-08-20T04:52:35;17.41;82.72
47861;HTU21D;33620;52.340;5.984;2023-08-20T04:55:01;17.40;82.83
47861;HTU21D;33620;52.340;5.984;2023-08-20T04:57:27;17.39;82.84
47861;HTU21D;33620;52.340;5.984;2023-08-20T04:59:52;17.37;83.13
47861;HTU21D;33620;52.340;5.984;2023-08-20T05:02:18;17.40;83.15
47861;HTU21D;33620;52.340;5.984;2023-08-20T05:04:43;17.39;83.12
47861;HTU21D;33620;52.340;5.984;2023-08-20T05:07:08;17.39;82.88
47861;HTU21D;33620;52.340;5.984;2023-08-20T05:09:34;17.39;82.92
47861;HTU21D;33620;52.340;5.984;2023-08-20T05:11:59;17.41;83.02
47861;HTU21D;33620;52.340;5.984;2023-08-20T05:14:25;17.40;83.11
47861;HTU21D;33620;52.340;5.984;2023-08-20T05:16:50;17.44;83.23
47861;HTU21D;33620;52.340;5.984;2023-08-20T05:19:15;17.43;83.27
47861;HTU21D;33620;52.340;5.984;2023-08-20T05:21:41;17.40;83.43
47861;HTU21D;33620;52.340;5.984;2023-08-20T05:24:06;17.39;83.64
47861;HTU21D;33620;52.340;5.984;2023-08-20T05:26:32;17.38;83.52
47861;HTU21D;33620;52.340;5.984;2023-08-20T05:28:57;17.40;83.61
47861;HTU21D;33620;52.340;5.984;2023-08-20T05:31:22;17.40;83.47
47861;HTU21D;33620;52.340;5.984;2023-08-20T05:33:48;17.43;83.54
47861;HTU21D;33620;52.340;5.984;2023-08-20T05:36:14;17.48;83.58
47861;HTU21D;33620;52.340;5.984;2023-08-20T05:38:39;17.50;83.58
47861;HTU21D;33620;52.340;5.984;2023-08-20T05:41:07;17.51;83.70
47861;HTU21D;33620;52.340;5.984;2023-08-20T05:43:32;17.51;83.74
47861;HTU21D;33620;52.340;5.984;2023-08-20T05:45:58;17.58;83.94
47861;HTU21D;33620;52.340;5.984;2023-08-20T05:48:23;17.66;83.88
47861;HTU21D;33620;52.340;5.984;2023-08-20T05:50:48;17.66;83.73
47861;HTU21D;33620;52.340;5.984;2023-08-20T05:53:14;17.73;83.78
47861;HTU21D;33620;52.340;5.984;2023-08-20T05:55:39;17.77;83.97
47861;HTU21D;33620;52.340;5.984;2023-08-20T05:58:05;17.81;83.71
47861;HTU21D;33620;52.340;5.984;2023-08-20T06:00:30;17.84;83.80
47861;HTU21D;33620;52.340;5.984;2023-08-20T06:02:56;17.89;83.88
47861;HTU21D;33620;52.340;5.984;2023-08-20T06:05:21;17.93;84.06
47861;HTU21D;33620;52.340;5.984;2023-08-20T06:07:46;17.97;84.17
47861;HTU21D;33620;52.340;5.984;2023-08-20T06:10:12;18.05;84.19
47861;HTU21D;33620;52.340;5.984;2023-08-20T06:12:37;18.11;84.25
47861;HTU21D;33620;52.340;5.984;2023-08-20T06:15:03;18.17;84.01
47861;HTU21D;33620;52.340;5.984;2023-08-20T06:17:29;18.19;84.08
47861;HTU21D;33620;52.340;5.984;2023-08-20T06:19:54;18.23;84.24
47861;HTU21D;33620;52.340;5.984;2023-08-20T06:22:20;18.28;84.25
47861;HTU21D;33620;52.340;5.984;2023-08-20T06:24:45;18.32;84.42
47861;HTU21D;33620;52.340;5.984;2023-08-20T06:27:10;18.38;84.55
47861;HTU21D;33620;52.340;5.984;2023-08-20T06:29:36;18.42;84.61
47861;HTU21D;33620;52.340;5.984;2023-08-20T06:32:01;18.47;84.94
47861;HTU21D;33620;52.340;5.984;2023-08-20T06:34:27;18.50;85.09
47861;HTU21D;33620;52.340;5.984;2023-08-20T06:36:52;18.56;85.08
47861;HTU21D;33620;52.340;5.984;2023-08-20T06:39:18;18.62;84.99
47861;HTU21D;33620;52.340;5.984;2023-08-20T06:41:45;18.68;85.01
47861;HTU21D;33620;52.340;5.984;2023-08-20T06:44:10;18.72;85.13
47861;HTU21D;33620;52.340;5.984;2023-08-20T06:46:36;18.78;85.38
47861;HTU21D;33620;52.340;5.984;2023-08-20T06:49:01;18.84;85.45
47861;HTU21D;33620;52.340;5.984;2023-08-20T06:51:26;18.87;85.62
47861;HTU21D;33620;52.340;5.984;2023-08-20T06:53:53;18.95;85.55
47861;HTU21D;33620;52.340;5.984;2023-08-20T06:56:19;19.01;85.45
47861;HTU21D;33620;52.340;5.984;2023-08-20T06:58:45;19.03;85.56
47861;HTU21D;33620;52.340;5.984;2023-08-20T07:01:11;19.09;85.54
47861;HTU21D;33620;52.340;5.984;2023-08-20T07:03:39;19.14;85.53
47861;HTU21D;33620;52.340;5.984;2023-08-20T07:06:05;19.20;85.46
47861;HTU21D;33620;52.340;5.984;2023-08-20T07:08:31;19.26;85.40
47861;HTU21D;33620;52.340;5.984;2023-08-20T07:10:56;19.31;85.29
47861;HTU21D;33620;52.340;5.984;2023-08-20T07:13:22;19.35;85.22
47861;HTU21D;33620;52.340;5.984;2023-08-20T07:15:48;19.40;84.87
47861;HTU21D;33620;52.340;5.984;2023-08-20T07:18:14;19.44;84.86
47861;HTU21D;33620;52.340;5.984;2023-08-20T07:20:42;19.47;84.88
47861;HTU21D;33620;52.340;5.984;2023-08-20T07:23:07;19.52;84.67
47861;HTU21D;33620;52.340;5.984;2023-08-20T07:25:35;19.54;83.94
47861;HTU21D;33620;52.340;5.984;2023-08-20T07:28:01;19.60;83.73
47861;HTU21D;33620;52.340;5.984;2023-08-20T07:30:27;19.66;83.67
47861;HTU21D;33620;52.340;5.984;2023-08-20T07:32:53;19.69;83.61
47861;HTU21D;33620;52.340;5.984;2023-08-20T07:35:19;19.75;83.62
47861;HTU21D;33620;52.340;5.984;2023-08-20T07:37:44;19.79;83.85
47861;HTU21D;33620;52.340;5.984;2023-08-20T07:40:11;19.83;83.68
47861;HTU21D;33620;52.340;5.984;2023-08-20T07:42:37;19.87;83.54
47861;HTU21D;33620;52.340;5.984;2023-08-20T07:45:02;19.91;83.23
47861;HTU21D;33620;52.340;5.984;2023-08-20T07:47:28;19.96;83.16
47861;HTU21D;33620;52.340;5.984;2023-08-20T07:49:54;19.99;83.00
47861;HTU21D;33620;52.340;5.984;2023-08-20T07:52:20;20.03;82.87
47861;HTU21D;33620;52.340;5.984;2023-08-20T07:54:46;20.05;82.93
47861;HTU21D;33620;52.340;5.984;2023-08-20T07:57:11;20.05;82.80
47861;HTU21D;33620;52.340;5.984;2023-08-20T07:59:37;20.10;82.19
47861;HTU21D;33620;52.340;5.984;2023-08-20T08:02:03;20.15;81.47
47861;HTU21D;33620;52.340;5.984;2023-08-20T08:04:28;20.21;81.20
47861;HTU21D;33620;52.340;5.984;2023-08-20T08:06:54;20.28;81.22
47861;HTU21D;33620;52.340;5.984;2023-08-20T08:09:27;20.31;80.95
47861;HTU21D;33620;52.340;5.984;2023-08-20T08:11:52;20.32;79.41
47861;HTU21D;33620;52.340;5.984;2023-08-20T08:14:17;20.40;77.89
47861;HTU21D;33620;52.340;5.984;2023-08-20T08:16:45;20.48;78.54
47861;HTU21D;33620;52.340;5.984;2023-08-20T08:19:10;20.50;77.87
47861;HTU21D;33620;52.340;5.984;2023-08-20T08:21:36;20.56;76.55
47861;HTU21D;33620;52.340;5.984;2023-08-20T08:24:01;20.66;76.83
47861;HTU21D;33620;52.340;5.984;2023-08-20T08:26:28;20.76;76.86
47861;HTU21D;33620;52.340;5.984;2023-08-20T08:28:53;20.87;77.44
47861;HTU21D;33620;52.340;5.984;2023-08-20T08:31:19;20.92;77.09
47861;HTU21D;33620;52.340;5.984;2023-08-20T08:33:44;20.98;76.49
47861;HTU21D;33620;52.340;5.984;2023-08-20T08:36:09;21.09;75.83
47861;HTU21D;33620;52.340;5.984;2023-08-20T08:38:36;21.21;75.41
47861;HTU21D;33620;52.340;5.984;2023-08-20T08:41:03;21.28;70.14
47861;HTU21D;33620;52.340;5.984;2023-08-20T08:43:31;21.44;71.57
47861;HTU21D;33620;52.340;5.984;2023-08-20T08:45:57;21.51;70.65
47861;HTU21D;33620;52.340;5.984;2023-08-20T08:48:22;21.62;71.15
47861;HTU21D;33620;52.340;5.984;2023-08-20T08:50:49;21.70;70.28
47861;HTU21D;33620;52.340;5.984;2023-08-20T08:53:15;21.83;71.16
47861;HTU21D;33620;52.340;5.984;2023-08-20T08:55:40;21.92;69.49
47861;HTU21D;33620;52.340;5.984;2023-08-20T08:58:06;22.03;69.65
47861;HTU21D;33620;52.340;5.984;2023-08-20T09:00:31;22.14;69.00
47861;HTU21D;33620;52.340;5.984;2023-08-20T09:02:58;22.24;68.47
47861;HTU21D;33620;52.340;5.984;2023-08-20T09:05:23;22.33;68.12
47861;HTU21D;33620;52.340;5.984;2023-08-20T09:07:55;22.41;67.16
47861;HTU21D;33620;52.340;5.984;2023-08-20T09:10:21;22.54;66.27
47861;HTU21D;33620;52.340;5.984;2023-08-20T09:12:47;22.63;64.25
47861;HTU21D;33620;52.340;5.984;2023-08-20T09:15:13;22.73;65.08
47861;HTU21D;33620;52.340;5.984;2023-08-20T09:17:41;22.82;64.20
47861;HTU21D;33620;52.340;5.984;2023-08-20T09:20:06;22.94;63.56
47861;HTU21D;33620;52.340;5.984;2023-08-20T09:22:35;23.05;62.86
47861;HTU21D;33620;52.340;5.984;2023-08-20T09:25:01;23.16;64.11
47861;HTU21D;33620;52.340;5.984;2023-08-20T09:27:27;23.28;63.93
47861;HTU21D;33620;52.340;5.984;2023-08-20T09:29:55;23.39;63.29
47861;HTU21D;33620;52.340;5.984;2023-08-20T09:32:22;23.43;61.21
47861;HTU21D;33620;52.340;5.984;2023-08-20T09:34:49;23.47;60.47
47861;HTU21D;33620;52.340;5.984;2023-08-20T09:37:17;23.56;57.60
47861;HTU21D;33620;52.340;5.984;2023-08-20T09:39:42;23.61;58.09
47861;HTU21D;33620;52.340;5.984;2023-08-20T09:42:09;23.70;58.70
47861;HTU21D;33620;52.340;5.984;2023-08-20T09:44:36;23.77;58.54
47861;HTU21D;33620;52.340;5.984;2023-08-20T09:47:03;23.77;58.51
47861;HTU21D;33620;52.340;5.984;2023-08-20T09:49:33;23.86;58.67
47861;HTU21D;33620;52.340;5.984;2023-08-20T09:52:05;23.95;58.32
47861;HTU21D;33620;52.340;5.984;2023-08-20T09:54:52;23.99;57.94
47861;HTU21D;33620;52.340;5.984;2023-08-20T09:57:27;24.06;58.03
47861;HTU21D;33620;52.340;5.984;2023-08-20T09:59:55;24.16;57.99
47861;HTU21D;33620;52.340;5.984;2023-08-20T10:02:22;24.23;57.29
47861;HTU21D;33620;52.340;5.984;2023-08-20T10:04:49;24.35;57.84
47861;HTU21D;33620;52.340;5.984;2023-08-20T10:07:15;24.38;55.39
47861;HTU21D;33620;52.340;5.984;2023-08-20T10:09:42;24.35;55.39
47861;HTU21D;33620;52.340;5.984;2023-08-20T10:12:14;24.41;56.13
47861;HTU21D;33620;52.340;5.984;2023-08-20T10:14:40;24.44;56.87
47861;HTU21D;33620;52.340;5.984;2023-08-20T10:17:09;24.58;56.39
47861;HTU21D;33620;52.340;5.984;2023-08-20T10:19:37;24.66;55.20
47861;HTU21D;33620;52.340;5.984;2023-08-20T10:22:03;24.76;54.15
47861;HTU21D;33620;52.340;5.984;2023-08-20T10:24:40;24.83;52.88
47861;HTU21D;33620;52.340;5.984;2023-08-20T10:27:10;24.90;53.81
47861;HTU21D;33620;52.340;5.984;2023-08-20T10:29:40;24.99;53.32
47861;HTU21D;33620;52.340;5.984;2023-08-20T10:32:13;25.08;53.04
47861;HTU21D;33620;52.340;5.984;2023-08-20T10:34:42;25.14;53.85
47861;HTU21D;33620;52.340;5.984;2023-08-20T10:37:14;25.23;54.40
47861;HTU21D;33620;52.340;5.984;2023-08-20T10:39:40;25.28;51.72
47861;HTU21D;33620;52.340;5.984;2023-08-20T10:45:16;25.35;52.51
47861;HTU21D;33620;52.340;5.984;2023-08-20T10:47:47;25.44;51.68
47861;HTU21D;33620;52.340;5.984;2023-08-20T10:50:17;25.49;50.14
47861;HTU21D;33620;52.340;5.984;2023-08-20T10:52:54;25.56;50.25
47861;HTU21D;33620;52.340;5.984;2023-08-20T10:55:23;25.65;51.36
47861;HTU21D;33620;52.340;5.984;2023-08-20T10:57:56;25.82;51.60
47861;HTU21D;33620;52.340;5.984;2023-08-20T11:00:22;25.90;51.14
47861;HTU21D;33620;52.340;5.984;2023-08-20T11:02:49;25.87;49.57
47861;HTU21D;33620;52.340;5.984;2023-08-20T11:05:18;25.76;49.21
47861;HTU21D;33620;52.340;5.984;2023-08-20T11:07:45;25.59;47.96
47861;HTU21D;33620;52.340;5.984;2023-08-20T11:10:15;25.60;47.81
47861;HTU21D;33620;52.340;5.984;2023-08-20T11:12:47;25.59;47.56
47861;HTU21D;33620;52.340;5.984;2023-08-20T11:15:13;25.43;45.40
47861;HTU21D;33620;52.340;5.984;2023-08-20T11:17:45;25.48;45.70
47861;HTU21D;33620;52.340;5.984;2023-08-20T11:20:13;25.60;47.10
47861;HTU21D;33620;52.340;5.984;2023-08-20T11:22:39;25.74;47.92
47861;HTU21D;33620;52.340;5.984;2023-08-20T11:25:06;25.88;49.50
47861;HTU21D;33620;52.340;5.984;2023-08-20T11:27:31;26.08;48.53
47861;HTU21D;33620;52.340;5.984;2023-08-20T11:29:57;26.22;48.72
47861;HTU21D;33620;52.340;5.984;2023-08-20T11:32:23;26.35;47.62
47861;HTU21D;33620;52.340;5.984;2023-08-20T11:34:49;26.47;46.84
47861;HTU21D;33620;52.340;5.984;2023-08-20T11:37:20;26.39;44.67
47861;HTU21D;33620;52.340;5.984;2023-08-20T11:39:50;26.46;46.28
47861;HTU21D;33620;52.340;5.984;2023-08-20T11:42:16;26.49;45.51
47861;HTU21D;33620;52.340;5.984;2023-08-20T11:44:46;26.43;45.09
47861;HTU21D;33620;52.340;5.984;2023-08-20T11:47:18;26.52;47.63
47861;HTU21D;33620;52.340;5.984;2023-08-20T11:49:44;26.50;47.09
47861;HTU21D;33620;52.340;5.984;2023-08-20T11:52:10;26.51;47.20
47861;HTU21D;33620;52.340;5.984;2023-08-20T11:54:38;26.43;47.33
47861;HTU21D;33620;52.340;5.984;2023-08-20T11:57:04;26.58;46.69
47861;HTU21D;33620;52.340;5.984;2023-08-20T11:59:30;26.67;45.68
47861;HTU21D;33620;52.340;5.984;2023-08-20T12:02:01;26.71;46.44
47861;HTU21D;33620;52.340;5.984;2023-08-20T12:04:28;26.84;46.97
47861;HTU21D;33620;52.340;5.984;2023-08-20T12:07:13;26.65;44.01
47861;HTU21D;33620;52.340;5.984;2023-08-20T12:09:39;26.62;45.19
47861;HTU21D;33620;52.340;5.984;2023-08-20T12:12:06;26.39;43.82
47861;HTU21D;33620;52.340;5.984;2023-08-20T12:14:32;26.36;43.94
47861;HTU21D;33620;52.340;5.984;2023-08-20T12:16:57;26.49;45.15
47861;HTU21D;33620;52.340;5.984;2023-08-20T12:19:24;26.61;44.39
47861;HTU21D;33620;52.340;5.984;2023-08-20T12:21:49;26.64;42.82
47861;HTU21D;33620;52.340;5.984;2023-08-20T12:24:16;26.50;44.28
47861;HTU21D;33620;52.340;5.984;2023-08-20T12:26:41;26.53;44.06
47861;HTU21D;33620;52.340;5.984;2023-08-20T12:29:07;26.67;43.49
47861;HTU21D;33620;52.340;5.984;2023-08-20T12:31:34;26.82;43.51
47861;HTU21D;33620;52.340;5.984;2023-08-20T12:34:00;26.91;43.89
47861;HTU21D;33620;52.340;5.984;2023-08-20T12:36:26;27.07;43.92
47861;HTU21D;33620;52.340;5.984;2023-08-20T12:38:51;27.21;45.10
47861;HTU21D;33620;52.340;5.984;2023-08-20T12:41:21;27.34;44.41
47861;HTU21D;33620;52.340;5.984;2023-08-20T12:43:46;27.45;44.37
47861;HTU21D;33620;52.340;5.984;2023-08-20T12:46:11;27.34;44.63
47861;HTU21D;33620;52.340;5.984;2023-08-20T12:48:38;27.43;45.55
47861;HTU21D;33620;52.340;5.984;2023-08-20T12:51:04;27.47;44.78
47861;HTU21D;33620;52.340;5.984;2023-08-20T12:53:31;27.49;43.98
47861;HTU21D;33620;52.340;5.984;2023-08-20T12:55:56;27.57;42.19
47861;HTU21D;33620;52.340;5.984;2023-08-20T12:58:22;27.61;42.58
47861;HTU21D;33620;52.340;5.984;2023-08-20T13:00:47;27.59;43.71
47861;HTU21D;33620;52.340;5.984;2023-08-20T13:03:13;27.38;43.62
47861;HTU21D;33620;52.340;5.984;2023-08-20T13:05:39;27.16;44.55
47861;HTU21D;33620;52.340;5.984;2023-08-20T13:08:05;26.95;46.47
47861;HTU21D;33620;52.340;5.984;2023-08-20T13:10:31;26.69;46.44
47861;HTU21D;33620;52.340;5.984;2023-08-20T13:13:00;26.38;46.14
47861;HTU21D;33620;52.340;5.984;2023-08-20T13:15:26;26.30;46.82
47861;HTU21D;33620;52.340;5.984;2023-08-20T13:17:53;26.26;46.78
47861;HTU21D;33620;52.340;5.984;2023-08-20T13:20:19;26.28;47.19
47861;HTU21D;33620;52.340;5.984;2023-08-20T13:22:49;26.43;46.86
47861;HTU21D;33620;52.340;5.984;2023-08-20T13:25:15;26.58;46.40
47861;HTU21D;33620;52.340;5.984;2023-08-20T13:27:41;26.67;46.03
47861;HTU21D;33620;52.340;5.984;2023-08-20T13:30:07;26.89;45.02
47861;HTU21D;33620;52.340;5.984;2023-08-20T13:32:34;26.89;44.93
47861;HTU21D;33620;52.340;5.984;2023-08-20T13:34:59;27.07;45.53
47861;HTU21D;33620;52.340;5.984;2023-08-20T13:37:25;27.19;44.05
47861;HTU21D;33620;52.340;5.984;2023-08-20T13:39:50;27.15;44.21
47861;HTU21D;33620;52.340;5.984;2023-08-20T13:42:16;27.07;43.64
47861;HTU21D;33620;52.340;5.984;2023-08-20T13:44:41;27.12;41.78
47861;HTU21D;33620;52.340;5.984;2023-08-20T13:47:07;26.99;43.23
47861;HTU21D;33620;52.340;5.984;2023-08-20T13:49:33;27.08;43.06
47861;HTU21D;33620;52.340;5.984;2023-08-20T13:51:58;27.02;42.65
47861;HTU21D;33620;52.340;5.984;2023-08-20T13:54:24;26.98;43.53
47861;HTU21D;33620;52.340;5.984;2023-08-20T13:56:49;27.06;44.02
47861;HTU21D;33620;52.340;5.984;2023-08-20T13:59:14;27.07;43.68
47861;HTU21D;33620;52.340;5.984;2023-08-20T14:01:40;27.23;44.50
47861;HTU21D;33620;52.340;5.984;2023-08-20T14:04:05;27.35;43.64
47861;HTU21D;33620;52.340;5.984;2023-08-20T14:06:30;27.36;42.96
47861;HTU21D;33620;52.340;5.984;2023-08-20T14:08:56;27.34;43.77
47861;HTU21D;33620;52.340;5.984;2023-08-20T14:11:21;27.45;42.74
47861;HTU21D;33620;52.340;5.984;2023-08-20T14:13:48;27.51;42.70
47861;HTU21D;33620;52.340;5.984;2023-08-20T14:16:14;27.50;41.66
47861;HTU21D;33620;52.340;5.984;2023-08-20T14:18:39;27.51;43.05
47861;HTU21D;33620;52.340;5.984;2023-08-20T14:21:05;27.61;42.37
47861;HTU21D;33620;52.340;5.984;2023-08-20T14:23:31;27.66;41.90
47861;HTU21D;33620;52.340;5.984;2023-08-20T14:25:56;27.49;42.87
47861;HTU21D;33620;52.340;5.984;2023-08-20T14:28:22;27.46;42.36
47861;HTU21D;33620;52.340;5.984;2023-08-20T14:30:48;27.41;43.13
47861;HTU21D;33620;52.340;5.984;2023-08-20T14:33:14;27.39;40.50
47861;HTU21D;33620;52.340;5.984;2023-08-20T14:35:40;27.45;41.42
47861;HTU21D;33620;52.340;5.984;2023-08-20T14:38:06;27.53;42.93
47861;HTU21D;33620;52.340;5.984;2023-08-20T14:40:36;27.64;41.43
47861;HTU21D;33620;52.340;5.984;2023-08-20T14:43:03;27.47;42.03
47861;HTU21D;33620;52.340;5.984;2023-08-20T14:45:29;27.21;42.84
47861;HTU21D;33620;52.340;5.984;2023-08-20T14:47:54;27.08;43.76
47861;HTU21D;33620;52.340;5.984;2023-08-20T14:50:19;26.98;43.13
47861;HTU21D;33620;52.340;5.984;2023-08-20T14:52:45;26.84;44.77
47861;HTU21D;33620;52.340;5.984;2023-08-20T14:55:16;27.05;45.82
47861;HTU21D;33620;52.340;5.984;2023-08-20T14:57:42;27.04;44.50
47861;HTU21D;33620;52.340;5.984;2023-08-20T15:00:07;27.13;44.85
47861;HTU21D;33620;52.340;5.984;2023-08-20T15:02:33;27.17;46.12
47861;HTU21D;33620;52.340;5.984;2023-08-20T15:04:59;27.08;45.15
47861;HTU21D;33620;52.340;5.984;2023-08-20T15:07:25;27.15;45.94
47861;HTU21D;33620;52.340;5.984;2023-08-20T15:09:51;26.99;45.38
47861;HTU21D;33620;52.340;5.984;2023-08-20T15:12:16;26.93;45.19
47861;HTU21D;33620;52.340;5.984;2023-08-20T15:14:42;26.96;45.22
47861;HTU21D;33620;52.340;5.984;2023-08-20T15:17:07;26.97;44.67
47861;HTU21D;33620;52.340;5.984;2023-08-20T15:19:33;27.06;45.28